createdAt,value
2019-04-30T00:03:06.934Z,93.62
2019-04-30T00:07:10.294Z,93.73
2019-04-30T00:11:15.934Z,93.90
2019-04-30T00:15:19.447Z,94.04
2019-04-30T00:19:20.965Z,94.22
2019-04-30T00:23:27.171Z,94.48
2019-04-30T00:27:30.182Z,94.17
2019-04-30T00:31:30.803Z,94.29
2019-04-30T00:35:32.721Z,94.33
2019-04-30T00:39:35.514Z,94.21
2019-04-30T00:43:41.986Z,93.97
2019-04-30T00:47:44.598Z,94.13
2019-04-30T00:51:45.356Z,94.32
2019-04-30T00:55:48.517Z,94.14
2019-04-30T00:59:50.591Z,93.80
2019-04-30T01:03:55.874Z,93.99
2019-04-30T01:07:58.182Z,94.29
2019-04-30T01:12:00.082Z,94.62
2019-04-30T01:16:01.989Z,94.48
2019-04-30T01:20:05.826Z,94.55
2019-04-30T01:24:08.951Z,94.54
2019-04-30T01:28:10.900Z,94.46
2019-04-30T01:32:17.421Z,94.52
2019-04-30T01:36:16.483Z,94.80
2019-04-30T01:40:18.992Z,94.94
2019-04-30T01:44:21.110Z,95.04
2019-04-30T01:48:23.023Z,95.13
2019-04-30T01:52:31.041Z,95.08
2019-04-30T01:56:35.501Z,94.91
2019-04-30T02:00:41.547Z,94.54
2019-04-30T02:04:45.152Z,94.53
2019-04-30T02:08:47.132Z,94.71
2019-04-30T02:13:08.932Z,94.56
2019-04-30T02:17:14.554Z,94.36
2019-04-30T02:21:16.459Z,93.81
2019-04-30T02:25:19.541Z,93.42
2019-04-30T02:29:21.574Z,92.71
2019-04-30T02:33:23.485Z,92.04
2019-04-30T02:37:30.093Z,90.90
2019-04-30T02:41:33.213Z,90.44
2019-04-30T02:45:39.954Z,90.58
2019-04-30T02:49:43.371Z,90.43
2019-04-30T02:54:00.573Z,89.82
2019-04-30T02:58:02.315Z,89.24
2019-04-30T03:02:05.341Z,89.64
2019-04-30T03:06:07.269Z,89.67
2019-04-30T03:10:10.300Z,89.24
2019-04-30T03:14:12.266Z,89.45
2019-04-30T03:18:15.825Z,89.22
2019-04-30T03:22:22.144Z,86.88
2019-04-30T03:26:42.543Z,86.68
2019-04-30T03:31:04.647Z,86.11
2019-04-30T03:35:17.229Z,85.33
2019-04-30T03:39:20.859Z,85.60
2019-04-30T03:43:22.824Z,86.26
2019-04-30T03:47:24.725Z,86.91
2019-04-30T03:51:26.627Z,86.66
2019-04-30T03:55:29.885Z,86.76
2019-04-30T03:59:31.920Z,86.79
2019-04-30T04:03:35.492Z,87.40
2019-04-30T04:07:45.009Z,87.88
2019-04-30T04:11:50.824Z,87.65
2019-04-30T04:15:51.921Z,88.00
2019-04-30T04:19:53.825Z,87.77
2019-04-30T04:23:55.775Z,88.05
2019-04-30T04:28:00.189Z,88.28
2019-04-30T04:32:01.337Z,88.28
2019-04-30T04:36:03.254Z,88.65
2019-04-30T04:40:09.272Z,89.09
2019-04-30T04:44:30.805Z,88.76
2019-04-30T04:48:32.823Z,88.56
2019-04-30T04:52:34.717Z,87.55
2019-04-30T04:56:36.622Z,87.10
2019-04-30T05:00:39.172Z,87.08
2019-04-30T05:04:41.126Z,87.43
2019-04-30T05:08:43.039Z,89.37
2019-04-30T05:12:44.942Z,87.22
2019-04-30T05:16:48.745Z,86.61
2019-04-30T05:20:50.457Z,86.88
2019-04-30T05:24:52.373Z,85.77
2019-04-30T05:28:54.272Z,84.67
2019-04-30T05:32:56.198Z,83.17
2019-04-30T05:36:58.494Z,82.58
2019-04-30T05:41:01.719Z,83.15
2019-04-30T05:45:04.702Z,82.64
2019-04-30T05:49:06.611Z,82.75
2019-04-30T05:53:08.977Z,81.76
2019-04-30T05:57:11.274Z,81.18
2019-04-30T06:01:13.174Z,81.33
2019-04-30T06:05:15.209Z,81.81
2019-04-30T06:09:35.032Z,79.67
2019-04-30T06:13:49.128Z,81.34
2019-04-30T06:18:00.711Z,80.58
2019-04-30T06:22:05.800Z,81.42
2019-04-30T06:26:09.612Z,80.64
2019-04-30T06:30:17.252Z,81.37
2019-04-30T06:34:19.759Z,80.07
2019-04-30T06:38:21.920Z,79.81
2019-04-30T06:42:24.534Z,78.68
2019-04-30T06:46:28.525Z,79.07
2019-04-30T06:50:31.184Z,79.23
2019-04-30T06:54:33.095Z,77.01
2019-04-30T06:58:34.989Z,77.56
2019-04-30T07:02:36.970Z,77.54
2019-04-30T07:06:44.015Z,76.36
2019-04-30T07:10:53.168Z,76.66
2019-04-30T07:14:46.975Z,77.61
2019-04-30T07:18:49.048Z,76.86
2019-04-30T07:22:59.056Z,74.61
2019-04-30T07:26:58.416Z,73.07
2019-04-30T07:31:10.158Z,73.85
2019-04-30T07:35:01.843Z,74.71
2019-04-30T07:39:10.010Z,74.09
2019-04-30T07:43:11.804Z,73.39
2019-04-30T07:47:13.714Z,73.08
2019-04-30T07:51:16.540Z,74.57
2019-04-30T07:55:19.727Z,74.72
2019-04-30T07:59:21.816Z,72.40
2019-04-30T08:03:30.239Z,73.55
2019-04-30T08:07:31.928Z,71.60
2019-04-30T08:11:34.368Z,72.94
2019-04-30T08:15:37.531Z,70.86
2019-04-30T08:19:41.145Z,71.46
2019-04-30T08:23:43.304Z,70.43
2019-04-30T08:27:45.213Z,70.06
2019-04-30T08:31:48.930Z,68.37
2019-04-30T08:35:50.714Z,67.03
2019-04-30T08:39:52.649Z,68.16
2019-04-30T08:43:54.553Z,69.08
2019-04-30T08:47:56.460Z,66.68
2019-04-30T08:51:58.741Z,68.24
2019-04-30T08:56:00.632Z,68.18
2019-04-30T09:00:02.547Z,69.34
2019-04-30T09:04:07.570Z,65.44
2019-04-30T09:08:10.935Z,64.81
2019-04-30T09:12:12.850Z,67.01
2019-04-30T09:16:14.903Z,67.79
2019-04-30T09:20:19.420Z,67.12
2019-04-30T09:24:21.423Z,64.96
2019-04-30T09:28:23.362Z,63.81
2019-04-30T09:32:25.299Z,64.03
2019-04-30T09:36:29.198Z,63.97
2019-04-30T09:40:32.555Z,63.97
2019-04-30T09:44:34.653Z,62.18
2019-04-30T09:48:38.503Z,61.46
2019-04-30T09:52:41.025Z,60.71
2019-04-30T09:56:43.219Z,60.85
2019-04-30T10:00:45.140Z,59.52
2019-04-30T10:04:47.556Z,59.97
2019-04-30T10:08:51.331Z,57.79
2019-04-30T10:12:53.419Z,57.33
2019-04-30T10:17:02.806Z,58.65
2019-04-30T10:21:04.914Z,58.06
2019-04-30T10:25:09.834Z,57.70
2019-04-30T10:29:32.525Z,58.33
2019-04-30T10:33:53.347Z,56.28
2019-04-30T10:38:13.662Z,55.16
2019-04-30T10:42:17.149Z,54.48
2019-04-30T10:46:19.052Z,54.89
2019-04-30T10:50:22.552Z,52.94
2019-04-30T10:54:26.519Z,54.02
2019-04-30T10:58:28.155Z,52.17
2019-04-30T11:02:31.379Z,52.27
2019-04-30T11:06:34.446Z,52.49
2019-04-30T11:10:36.810Z,54.30
2019-04-30T11:14:38.714Z,53.30
2019-04-30T11:18:40.810Z,51.32
2019-04-30T11:22:42.943Z,51.69
2019-04-30T11:26:45.741Z,52.71
2019-04-30T11:30:49.947Z,52.20
2019-04-30T11:34:52.277Z,50.44
2019-04-30T11:38:54.701Z,51.52
2019-04-30T11:42:58.102Z,53.50
2019-04-30T11:47:09.375Z,50.32
2019-04-30T11:51:11.448Z,48.48
2019-04-30T11:55:15.199Z,48.06
2019-04-30T12:03:25.757Z,49.75
2019-04-30T12:07:29.297Z,48.67
2019-04-30T12:11:40.360Z,48.92
2019-04-30T12:15:42.263Z,48.24
2019-04-30T12:19:44.225Z,47.32
2019-04-30T12:23:46.153Z,46.95
2019-04-30T12:27:49.230Z,46.29
2019-04-30T12:31:51.154Z,46.62
2019-04-30T12:35:53.154Z,43.79
2019-04-30T12:39:56.026Z,43.81
2019-04-30T12:43:59.419Z,45.78
2019-04-30T12:48:03.017Z,47.26
2019-04-30T12:52:15.686Z,49.13
2019-04-30T12:56:28.233Z,48.44
2019-04-30T13:00:31.864Z,47.77
2019-04-30T13:04:33.786Z,48.74
2019-04-30T13:08:36.169Z,48.68
2019-04-30T13:12:39.278Z,47.98
2019-04-30T13:16:41.488Z,46.59
2019-04-30T13:20:43.558Z,44.92
2019-04-30T13:24:46.515Z,43.93
2019-04-30T13:28:51.434Z,42.39
2019-04-30T13:33:09.441Z,41.80
2019-04-30T13:37:11.498Z,42.86
2019-04-30T13:41:24.167Z,41.11
2019-04-30T13:45:26.094Z,40.89
2019-04-30T13:49:30.099Z,41.42
2019-04-30T13:53:31.619Z,39.83
2019-04-30T13:57:34.435Z,40.59
2019-04-30T14:01:36.434Z,40.92
2019-04-30T14:05:38.458Z,39.69
2019-04-30T14:09:40.366Z,39.50
2019-04-30T14:13:44.672Z,39.11
2019-04-30T14:17:46.569Z,41.09
2019-04-30T14:22:09.568Z,38.61
2019-04-30T14:26:19.373Z,38.93
2019-04-30T14:30:21.711Z,40.41
2019-04-30T14:34:23.609Z,38.95
2019-04-30T14:38:25.538Z,40.07
2019-04-30T14:42:28.316Z,39.81
2019-04-30T14:46:50.529Z,38.19
2019-04-30T14:50:52.743Z,37.41
2019-04-30T14:55:12.105Z,38.03
2019-04-30T14:59:15.645Z,37.31
2019-04-30T15:03:19.406Z,37.94
2019-04-30T15:07:21.300Z,36.50
2019-04-30T15:11:23.257Z,36.42
2019-04-30T15:15:25.422Z,35.19
2019-04-30T15:19:27.418Z,35.83
2019-04-30T15:23:42.915Z,36.38
2019-04-30T15:27:49.108Z,36.30
2019-04-30T15:31:48.469Z,33.10
2019-04-30T15:35:50.429Z,34.12
2019-04-30T15:39:53.512Z,34.19
2019-04-30T15:43:58.323Z,33.99
2019-04-30T15:48:00.298Z,32.99
2019-04-30T15:52:04.429Z,31.70
2019-04-30T15:56:06.422Z,32.12
2019-04-30T16:00:12.082Z,31.59
2019-04-30T16:04:18.654Z,29.46
2019-04-30T16:08:54.063Z,29.33
2019-04-30T16:13:00.279Z,30.36
2019-04-30T16:17:16.040Z,31.09
2019-04-30T16:21:19.345Z,32.26
2019-04-30T16:25:22.826Z,32.76
2019-04-30T16:29:24.729Z,32.54
2019-04-30T16:33:30.563Z,31.25
2019-04-30T16:37:32.461Z,30.20
2019-04-30T16:41:35.451Z,30.22
2019-04-30T16:45:38.937Z,30.46
2019-04-30T16:49:42.010Z,31.18
2019-04-30T16:53:43.897Z,29.02
2019-04-30T16:57:45.818Z,27.93
2019-04-30T17:01:57.171Z,28.83
2019-04-30T17:06:03.060Z,28.69
2019-04-30T17:10:12.491Z,29.68
2019-04-30T17:14:16.267Z,31.14
2019-04-30T17:18:19.101Z,30.46
2019-04-30T17:22:21.167Z,28.83
2019-04-30T17:26:23.078Z,29.23
2019-04-30T17:30:25.250Z,30.86
2019-04-30T17:34:28.832Z,31.54
2019-04-30T17:38:31.654Z,33.28
2019-04-30T17:42:33.554Z,34.53
2019-04-30T17:46:35.483Z,35.99
2019-04-30T17:50:39.504Z,34.79
2019-04-30T17:54:40.980Z,36.26
2019-04-30T17:58:42.892Z,38.75
2019-04-30T18:02:44.878Z,38.79
2019-04-30T18:06:48.407Z,39.25
2019-04-30T18:11:06.745Z,41.26
2019-04-30T18:15:24.813Z,41.68
2019-04-30T18:19:44.239Z,43.26
2019-04-30T18:23:48.374Z,43.82
2019-04-30T18:27:53.023Z,44.06
2019-04-30T18:31:55.979Z,46.57
2019-04-30T18:35:59.696Z,45.55
2019-04-30T18:40:02.289Z,45.36
2019-04-30T18:44:05.118Z,47.03
2019-04-30T18:48:07.164Z,49.02
2019-04-30T18:52:09.383Z,49.20
2019-04-30T18:56:14.807Z,48.48
2019-04-30T19:00:19.754Z,50.11
2019-04-30T19:04:21.811Z,50.98
2019-04-30T19:08:31.061Z,52.48
2019-04-30T19:12:42.129Z,53.25
2019-04-30T19:16:59.497Z,54.15
2019-04-30T19:21:02.676Z,55.07
2019-04-30T19:25:05.569Z,55.89
2019-04-30T19:29:07.843Z,55.74
2019-04-30T19:33:13.240Z,55.91
2019-04-30T19:37:15.219Z,57.42
2019-04-30T19:41:18.582Z,58.45
2019-04-30T19:45:22.377Z,59.64
2019-04-30T19:49:24.394Z,60.07
2019-04-30T19:53:26.469Z,60.69
2019-04-30T19:57:28.709Z,60.84
2019-04-30T20:01:31.613Z,61.44
2019-04-30T20:05:33.679Z,61.94
2019-04-30T20:09:35.580Z,62.60
2019-04-30T20:13:37.532Z,62.70
2019-04-30T20:17:39.514Z,62.54
2019-04-30T20:21:48.747Z,62.78
2019-04-30T20:25:45.049Z,62.94
2019-04-30T20:29:46.931Z,63.19
2019-04-30T20:33:49.049Z,63.51
2019-04-30T20:38:09.506Z,63.69
2019-04-30T20:42:11.530Z,63.94
2019-04-30T20:46:13.443Z,64.13
2019-04-30T20:50:15.709Z,64.32
2019-04-30T20:54:19.013Z,64.92
2019-04-30T20:58:20.941Z,65.34
2019-04-30T21:02:22.839Z,65.75
2019-04-30T21:06:24.753Z,66.15
2019-04-30T21:10:26.651Z,66.48
2019-04-30T21:14:28.548Z,66.80
2019-04-30T21:18:32.561Z,67.08
2019-04-30T21:22:34.560Z,67.26
2019-04-30T21:26:36.461Z,67.73
2019-04-30T21:30:38.420Z,68.20
2019-04-30T21:34:44.603Z,68.52
2019-04-30T21:38:46.502Z,68.36
2019-04-30T21:42:48.401Z,68.63
2019-04-30T21:46:50.295Z,68.86
2019-04-30T21:50:52.263Z,68.88
2019-04-30T21:54:54.160Z,69.05
2019-04-30T21:58:56.065Z,69.18
2019-04-30T22:02:59.807Z,69.41
2019-04-30T22:07:01.548Z,69.73
2019-04-30T22:11:03.592Z,69.73
2019-04-30T22:15:07.883Z,69.95
2019-04-30T22:19:19.719Z,70.05
2019-04-30T22:23:21.677Z,70.24
2019-04-30T22:27:23.590Z,70.26
2019-04-30T22:31:25.667Z,70.48
2019-04-30T22:35:27.316Z,70.81
2019-04-30T22:39:30.877Z,70.84
2019-04-30T22:43:33.076Z,70.82
2019-04-30T22:47:35.033Z,70.97
2019-04-30T22:51:36.972Z,71.25
2019-04-30T22:55:39.833Z,71.37
2019-04-30T22:59:49.725Z,71.44
2019-04-30T23:03:45.414Z,71.74
2019-04-30T23:07:47.296Z,72.01
2019-04-30T23:11:49.266Z,72.20
2019-04-30T23:15:55.323Z,72.37
2019-04-30T23:19:57.219Z,72.53
2019-04-30T23:23:59.125Z,72.88
2019-04-30T23:28:01.071Z,73.07
2019-04-30T23:32:02.982Z,73.23
2019-04-30T23:36:04.950Z,73.31
2019-04-30T23:40:29.072Z,73.34
2019-04-30T23:44:31.945Z,73.49
2019-04-30T23:48:43.773Z,73.88
2019-04-30T23:52:45.687Z,74.04
2019-04-30T23:56:47.582Z,74.37
